• Join FlightAware (Why Join?)
  • Login
  • US Flag GB Flag 
18:30 EDT


 

Airport Tracker/Info


-or-


 

Live Flight TrackerFlight Track Log ✈ UAL1177 ✈ 27-Apr-2013 ✈ KSFO - KSTL

Flight Track Log - Related Links

Times and Time Zones

All times are in EDT time to prevent confusion due to time zone crossing. See the UAL1177 flight status page for this flight to view local times or setup timezone preferences in your user account.

Time Position Orientation Groundspeed Altitude Reporting Facility
EDT Latitude Longitude Course Direction KTS MPH feet Rate Location/Type
18:12 37.6333 -122.3667 70° East 160 184 600  Level Northern Cal TRACON
18:13 37.6667 -122.3167 50° Northeast 201 231 3,000 2,400 Climbing Northern Cal TRACON
18:14 37.6403 -122.4351 120° Southeast  Level FlightAware Approximate
18:14 37.7167 -122.2500 47° Northeast 259 298 5,500  Level Northern Cal TRACON
18:15 37.6391 -122.2938 72° East  Level FlightAware Approximate
18:15 37.7667 -122.1667 53° Northeast 289 333 9,200  Level Northern Cal TRACON
18:16 37.6831 -122.1505 58° Northeast  Level FlightAware Approximate
18:16 37.7872 -122.0833 73° East 297 342 11,100  Level Oakland Center
18:17 37.7308 -122.0088 70° East  Level FlightAware Approximate
18:17 37.8206 -121.9606 71° East 362 417 13,900  Level Oakland Center
18:18 37.8544 -121.8339 71° East 380 437 17,000 2,460 Climbing Oakland Center
18:19 37.8903 -121.7019 71° East 397 457 19,000 960 Climbing Oakland Center
18:20 37.9272 -121.5631 71° East 413 475 19,000 660 Level Oakland Center
18:21 37.9658 -121.4167 71° East 431 496 20,400 2,280 Climbing Oakland Center
18:22 38.0100 -121.2469 72° East 427 491 23,700 2,640 Climbing Oakland Center
18:23 38.0469 -121.1044 72° East 427 491 25,800 1,860 Climbing Oakland Center
18:24 38.0831 -120.9556 73° East 439 505 27,600 1,680 Climbing Oakland Center
18:25 38.1028 -120.7969 81° East 455 524 29,300 1,860 Climbing Oakland Center
18:26 38.1242 -120.6397 80° East 457 526 31,500 1,980 Climbing Oakland Center
18:27 38.1444 -120.4853 80° East 450 518 33,400 1,620 Climbing Oakland Center
18:28 38.1650 -120.3317 80° East 445 512 34,900 1,500 Climbing Oakland Center
18:29 38.1850 -120.1789 80° East 440 506 36,500 1,020 Climbing Oakland Center
18:30 38.2042 -120.0286 81° East 433 498 37,000 240 Climbing Oakland Center
18:31 38.2289 -119.8386 81° East 453 521 37,000  Level Oakland Center
18:32 38.2478 -119.6822 81° East 450 518 37,000  Level Oakland Center
18:33 38.2675 -119.5231 81° East 453 521 37,000  Level Oakland Center
18:34 38.2858 -119.3722 81° East 452 520 37,000  Level Oakland Center
18:35 38.3047 -119.2136 81° East 455 524 37,000  Level Oakland Center
18:36 38.3136 -119.0536 86° East 456 525 37,000  Level Oakland Center
18:37 38.3183 -118.8933 88° East 456 525 37,000  Level Oakland Center
18:38 38.3244 -118.7000 88° East 458 527 37,000  Level Oakland Center
18:39 38.3294 -118.5406 88° East 453 521 37,000  Level Oakland Center
18:40 38.3336 -118.3781 88° East 459 528 37,000  Level Oakland Center
18:41 38.3381 -118.2178 88° East 456 525 37,000  Level Oakland Center
18:42 38.3422 -118.0611 88° East 458 527 37,000  Level Oakland Center
18:43 38.3453 -117.8997 89° East 457 526 37,000  Level Oakland Center
18:44 38.3497 -117.7403 88° East 452 520 37,000  Level Oakland Center
18:45 38.3525 -117.5808 89° East 449 517 37,000  Level Oakland Center
18:46 38.3561 -117.4214 88° East 448 516 37,000  Level Oakland Center
18:47 38.3578 -117.3572 88° East 447 514 37,000  Level Salt Lake Center
18:47 38.3592 -117.2644 89° East 446 513 37,000  Level Oakland Center
18:48 38.3617 -117.1006 89° East 446 513 37,000  Level Oakland Center
18:49 38.3625 -117.0364 89° East 446 513 37,000  Level Salt Lake Center
18:50 38.3656 -116.8767 89° East 446 513 37,000  Level Salt Lake Center
18:50 38.3667 -116.7825 89° East 444 511 37,000  Level Oakland Center
18:51 38.3681 -116.6250 89° East 443 510 37,000  Level Oakland Center
18:52 38.3708 -116.4372 89° East 442 509 37,000  Level Oakland Center
18:53 38.3714 -116.2803 90° East 442 509 37,000  Level Oakland Center
18:54 38.3728 -116.2489 87° East 443 510 37,000  Level Salt Lake Center
18:55 38.3736 -116.0942 90° East 439 505 37,000  Level Salt Lake Center
18:56 38.3756 -115.9086 89° East 437 503 37,000  Level Salt Lake Center
18:57 38.3767 -115.7528 89° East 439 505 37,000  Level Salt Lake Center
18:58 38.3772 -115.5964 90° East 441 507 37,000  Level Salt Lake Center
18:59 38.3778 -115.4403 90° East 441 507 37,000  Level Salt Lake Center
19:00 38.3786 -115.2967 90° East 444 511 37,000  Level Salt Lake Center
19:01 38.3783 -115.1397 90° East 444 511 37,000  Level Salt Lake Center
19:02 38.3794 -114.9819 89° East 446 513 37,000  Level Salt Lake Center
19:03 38.3786 -114.7939 90° East 443 510 37,000  Level Salt Lake Center
19:04 38.3772 -114.6372 91° East 444 511 37,000  Level Salt Lake Center
19:05 38.3781 -114.4814 90° East 440 506 37,000  Level Salt Lake Center
19:06 38.3769 -114.3256 90° East 441 507 37,000  Level Salt Lake Center
19:07 38.3758 -114.1711 90° East 438 504 37,000  Level Salt Lake Center
19:08 38.3736 -114.0150 91° East 439 505 37,000  Level Salt Lake Center
19:09 38.3731 -113.8583 90° East 440 506 37,000  Level Salt Lake Center
19:10 38.3711 -113.7017 91° East 441 507 37,000  Level Salt Lake Center
19:11 38.3694 -113.5442 91° East 443 510 37,000  Level Salt Lake Center
19:12 38.3672 -113.3875 91° East 443 510 37,000  Level Salt Lake Center
19:13 38.3647 -113.2303 91° East 442 509 37,000  Level Salt Lake Center
19:14 38.3619 -113.0731 91° East 443 510 37,000  Level Salt Lake Center
19:15 38.3778 -112.9206 82° East 436 502 37,000  Level Salt Lake Center
19:16 38.4114 -112.7386 77° East 437 503 37,000  Level Salt Lake Center
19:17 38.4394 -112.5872 77° East 438 504 37,000  Level Salt Lake Center
19:18 38.4664 -112.4367 77° East 435 501 37,000  Level Salt Lake Center
19:19 38.4942 -112.2856 77° East 437 503 37,000  Level Salt Lake Center
19:20 38.5203 -112.1333 78° East 439 505 37,000  Level Salt Lake Center
19:21 38.5481 -111.9828 77° East 437 503 37,000  Level Salt Lake Center
19:22 38.5750 -111.8314 77° East 437 503 37,000  Level Salt Lake Center
19:23 38.6006 -111.6794 78° East 437 503 37,000  Level Salt Lake Center
19:24 38.6267 -111.5286 77° East 434 499 37,000  Level Salt Lake Center
19:25 38.6533 -111.3747 77° East 441 507 37,000  Level Salt Lake Center
19:26 38.6792 -111.2217 78° East 442 509 37,000  Level Salt Lake Center
19:27 38.7042 -111.0678 78° East 441 507 37,000  Level Salt Lake Center
19:28 38.7322 -110.9028 78° East 440 506 37,000  Level Salt Lake Center
19:29 38.7600 -110.7325 78° East 437 503 37,000  Level Salt Lake Center
19:30 38.7831 -110.5858 79° East 439 505 37,000  Level Salt Lake Center
19:31 38.8069 -110.4389 78° East 439 505 37,000  Level Salt Lake Center
19:32 38.8186 -110.3661 78° East 437 503 37,000  Level Denver Center
19:33 38.8417 -110.1919 80° East 442 509 37,000  Level Denver Center
19:33 38.8581 -110.1222 73° East 441 507 37,000  Level Salt Lake Center
19:34 38.8839 -109.9503 79° East 441 507 37,000  Level Salt Lake Center
19:35 38.8983 -109.8506 79° East 438 504 37,000  Level Denver Center
19:36 38.9206 -109.7047 79° East 436 502 37,000  Level Denver Center
19:37 38.9464 -109.5322 79° East 441 507 37,000  Level Denver Center
19:38 38.9703 -109.3856 78° East 438 504 37,000  Level Denver Center
19:39 38.9967 -109.2122 79° East 443 510 37,000  Level Denver Center
19:40 39.0181 -109.0653 79° East 441 507 37,000  Level Denver Center
19:41 39.0408 -108.9175 79° East 440 506 37,000  Level Denver Center
19:43 39.0739 -108.7208 78° East 443 510 37,000  Level Denver Center
19:44 39.1094 -108.5508 75° East 442 509 37,000  Level Denver Center
19:45 39.1394 -108.4061 75° East 442 509 37,000  Level Denver Center
19:46 39.1703 -108.2603 75° East 442 509 37,000  Level Denver Center
19:47 39.2039 -108.0900 76° East 441 507 37,000  Level Denver Center
19:48 39.2339 -107.9444 75° East 439 505 37,000  Level Denver Center
19:49 39.2675 -107.7753 76° East 437 503 37,000  Level Denver Center
19:50 39.2961 -107.6272 76° East 442 509 37,000  Level Denver Center
19:51 39.3311 -107.4564 75° East 441 507 37,000  Level Denver Center
19:52 39.3597 -107.3092 76° East 443 510 37,000  Level Denver Center
19:53 39.3883 -107.1614 76° East 444 511 37,000  Level Denver Center
19:54 39.4208 -106.9883 76° East 444 511 37,000 60 Level Denver Center
19:55 39.4464 -106.8400 77° East 443 510 37,200 600 Climbing Denver Center
19:56 39.4675 -106.6611 81° East 450 518 38,300 840 Climbing Denver Center
19:57 39.4858 -106.5022 81° East 455 524 39,000 300 Climbing Denver Center
19:58 39.5050 -106.3375 81° East 462 532 39,000  Level Denver Center
19:59 39.5261 -106.1606 81° East 460 529 39,000  Level Denver Center
20:00 39.5436 -105.9947 82° East 461 531 39,000  Level Denver Center
20:01 39.5619 -105.8306 82° East 456 525 39,000  Level Denver Center
20:02 39.5814 -105.6650 81° East 455 524 39,000  Level Denver Center
20:03 39.5994 -105.5008 82° East 455 524 39,000  Level Denver Center
20:04 39.6161 -105.3392 82° East 445 512 39,000  Level Denver Center
20:05 39.6328 -105.1792 82° East 443 510 39,000  Level Denver Center
20:06 39.6497 -105.0169 82° East 448 516 39,000  Level Denver Center
20:07 39.6653 -104.8536 83° East 449 517 39,000  Level Denver Center
20:08 39.6853 -104.6906 81° East 434 499 39,000  Level Denver Center
20:09 39.6819 -104.5200 91° East 464 534 39,000  Level Denver Center
20:10 39.6658 -104.3572 97° East 442 509 39,000  Level Denver Center
20:11 39.6500 -104.1925 97° East 454 522 39,000  Level Denver Center
20:12 39.6344 -104.0306 97° East 446 513 39,000  Level Denver Center
20:13 39.6186 -103.8672 97° East 449 517 39,000  Level Denver Center
20:15 39.5971 -103.6598 98° East  Level FlightAware Approximate
20:15 39.5872 -103.5383 98° East 465 535 39,000  Level Denver Center
20:16 39.5703 -103.3689 97° East 471 542 39,000  Level Denver Center
20:17 39.5522 -103.1978 98° East 473 544 39,000  Level Denver Center
20:18 39.5353 -103.0272 97° East 475 547 39,000  Level Denver Center
20:19 39.5164 -102.8567 98° East 474 545 39,000  Level Denver Center
20:20 39.4981 -102.6853 98° East 476 548 39,000  Level Denver Center
20:21 39.4778 -102.4850 97° East 476 548 39,000  Level Denver Center
20:22 39.4581 -102.3161 99° East 476 548 39,000  Level Denver Center
20:23 39.4411 -102.1553 98° East 474 545 39,000  Level Denver Center
20:24 39.4225 -101.9936 98° East 476 548 39,000  Level Denver Center
20:25 39.4006 -101.8058 99° East 475 547 39,000  Level Denver Center
20:26 39.3822 -101.6442 98° East 475 547 39,000  Level Denver Center
20:27 39.3647 -101.4572 97° East 472 543 39,000  Level Denver Center
20:29 39.3494 -101.2989 97° East 467 537 39,000  Level Denver Center
20:30 39.3311 -101.1125 97° East 470 541 39,000  Level Denver Center
20:31 39.3114 -100.9269 98° East 469 540 39,000  Level Denver Center
20:32 39.2925 -100.7408 97° East 469 540 39,000  Level Denver Center
20:33 39.2764 -100.5814 97° East 470 541 39,000  Level Denver Center
20:34 39.2592 -100.4228 98° East 469 540 39,000  Level Denver Center
20:35 39.2394 -100.2364 98° East 470 541 39,000  Level Denver Center
20:36 39.2219 -100.0786 98° East 467 537 39,000  Level Denver Center
20:37 39.2008 -99.8892 98° East 469 540 39,000  Level Denver Center
20:38 39.1831 -99.7314 98° East 465 535 39,000  Level Denver Center
20:39 39.1650 -99.5722 98° East 467 537 39,000  Level Denver Center
20:40 39.1483 -99.3608 96° East 464 534 39,000  Level Denver Center
20:41 39.1436 -99.2006 92° East 467 537 39,000  Level Denver Center
20:42 39.1389 -99.0158 92° East 464 534 39,000  Level Denver Center
20:43 39.1339 -98.8594 92° East 465 535 39,000  Level Denver Center
20:44 39.1289 -98.6944 92° East 463 533 39,000  Level Denver Center
20:45 39.1233 -98.5281 92° East 465 535 39,000  Level Denver Center
20:46 39.1194 -98.4550 94° East 460 529 39,000  Level Kansas City Center
20:47 39.1150 -98.2878 92° East 465 535 39,000  Level Kansas City Center
20:48 39.1083 -98.1219 93° East 463 533 39,000  Level Kansas City Center
20:49 39.1006 -97.9231 93° East 462 532 39,000  Level Kansas City Center
20:50 39.0953 -97.7583 92° East 466 536 39,000  Level Kansas City Center
20:51 39.0875 -97.5978 94° East 470 541 39,000  Level Kansas City Center
20:52 39.0800 -97.4133 93° East 463 533 39,000  Level Kansas City Center
20:53 39.0733 -97.2558 93° East 460 529 39,000  Level Kansas City Center
20:54 39.0658 -97.0997 93° East 457 526 39,000  Level Kansas City Center
20:55 39.0581 -96.9164 93° East 460 529 39,000  Level Kansas City Center
20:56 39.0503 -96.7586 94° East 461 531 39,000  Level Kansas City Center
20:57 39.0419 -96.6008 94° East 462 532 39,000  Level Kansas City Center
20:58 39.0314 -96.4158 94° East 464 534 39,000  Level Kansas City Center
20:59 39.0225 -96.2575 94° East 466 536 39,000  Level Kansas City Center
21:00 39.0122 -96.0714 94° East 468 539 39,000  Level Kansas City Center
21:01 39.0036 -95.9117 94° East 470 541 39,000  Level Kansas City Center
21:02 38.9953 -95.7528 94° East 470 541 39,000  Level Kansas City Center
21:03 38.9836 -95.5661 95° East 473 544 39,000  Level Kansas City Center
21:04 38.9744 -95.4064 94° East 473 544 39,000  Level Kansas City Center
21:05 38.9628 -95.2208 95° East 473 544 39,000  Level Kansas City Center
21:06 38.9531 -95.0606 94° East 476 548 39,000  Level Kansas City Center
21:07 38.9422 -94.9003 95° East 474 545 39,000  Level Kansas City Center
21:08 38.9292 -94.7122 95° East 476 548 39,000  Level Kansas City Center
21:09 38.9189 -94.5528 95° East 471 542 39,000  Level Kansas City Center
21:10 38.9081 -94.3922 95° East 472 543 39,000  Level Kansas City Center
21:11 38.8939 -94.2061 96° East 470 541 39,000  Level Kansas City Center
21:12 38.8814 -94.0444 96° East 475 547 39,000  Level Kansas City Center
21:13 38.8681 -93.8564 95° East 474 545 39,000  Level Kansas City Center
21:14 38.8558 -93.6819 95° East 479 551 39,000  Level Kansas City Center
21:15 38.8433 -93.5122 95° East 478 550 39,000  Level Kansas City Center
21:16 38.8300 -93.3403 96° East 478 550 39,000  Level Kansas City Center
21:17 38.8161 -93.1675 96° East 483 556 39,000  Level Kansas City Center
21:18 38.8014 -92.9956 96° East 483 556 39,000  Level Kansas City Center
21:19 38.7875 -92.8275 96° East 478 550 39,000 -1,140 Level Kansas City Center
21:20 38.7736 -92.6586 96° East 475 547 36,800 -2,760 Descending Kansas City Center
21:21 38.7589 -92.4911 96° East 470 541 33,400 -3,240 Descending Kansas City Center
21:22 38.7444 -92.3217 96° East 473 544 30,300 -2,940 Descending Kansas City Center
21:23 38.7297 -92.1533 96° East 473 544 27,500 -2,700 Descending Kansas City Center
21:24 38.7150 -91.9981 97° East 447 514 24,900 -2,580 Descending Kansas City Center
21:25 38.7011 -91.8453 97° East 434 499 22,300 -2,520 Descending Kansas City Center
21:26 38.6900 -91.6986 95° East 419 482 19,800 -2,520 Descending Kansas City Center
21:27 38.6922 -91.5550 89° East 405 466 17,300 -2,580 Descending Kansas City Center
21:28 38.6925 -91.4183 90° East 390 449 14,700 -2,460 Descending Kansas City Center
21:29 38.6933 -91.2936 89° East 384 442 12,400 -1,860 Descending Kansas City Center
21:30 38.7044 -91.1639 84° East 372 428 11,000 -1,020 Descending Kansas City Center
21:31 38.7325 -91.0569 71° East 327 376 10,400 -900 Descending Kansas City Center
21:32 38.7558 -90.9572 73° East 301 346 9,200 -1,680 Descending Kansas City Center
21:33 38.7828 -90.8422 73° East 284 327 7,100 -1,860 Descending Kansas City Center
21:35 38.8056 -90.7503 72° East 274 315 5,500 -1,140 Descending Kansas City Center
21:36 38.8247 -90.6700 73° East 243 280 4,800 -1,140 Descending Kansas City Center
21:37 38.8364 -90.5972 78° East 224 258 3,200 -1,200 Descending Kansas City Center
21:38 38.8286 -90.5319 99° East 208 239 2,400 -420 Descending Kansas City Center
21:39 38.8056 -90.4828 121° Southeast 176 203 2,400  Level Kansas City Center